Time;durP1;ratioP1;P1;durP2;ratioP2;P2;SDS_P1;SDS_P2;PMS_P1;PMS_P2;Temp;Humidity;BMP_temperature;BMP_pressure;BME280_temperature;BME280_humidity;BME280_pressure;Samples;Min_cycle;Max_cycle;Signal;HPM_P1;HPM_P2
2022/03/25 00:01:22;;;;;;;61.55;37.92;;;;;;;7.63;71.98;102831.16;5031574;28;20041;-56
2022/03/25 00:03:48;;;;;;;53.90;35.88;;;;;;;7.61;72.45;102841.56;5031674;28;20038;-56
2022/03/25 00:06:13;;;;;;;57.70;37.63;;;;;;;7.58;71.99;102839.28;5031725;28;20124;-56
2022/03/25 00:08:39;;;;;;;56.65;38.03;;;;;;;7.58;72.25;102841.19;5031865;28;20030;-57
2022/03/25 00:11:04;;;;;;;56.42;37.50;;;;;;;7.56;72.08;102844.16;5031783;28;20136;-55
2022/03/25 00:13:29;;;;;;;59.13;37.75;;;;;;;7.53;72.57;102841.91;5031728;28;20052;-54
2022/03/25 00:15:56;;;;;;;55.95;37.20;;;;;;;7.48;72.20;102845.38;5031727;28;20100;-55
2022/03/25 00:18:21;;;;;;;54.85;35.60;;;;;;;7.49;72.59;102851.72;5031522;28;20084;-55
2022/03/25 00:20:48;;;;;;;56.13;37.10;;;;;;;7.43;72.34;102841.66;5031450;28;20462;-55
2022/03/25 00:23:14;;;;;;;54.65;35.35;;;;;;;7.38;72.30;102847.84;5031612;28;20087;-53
2022/03/25 00:25:39;;;;;;;54.25;36.03;;;;;;;7.31;72.28;102844.38;5039375;28;20455;-56
2022/03/25 00:28:05;;;;;;;57.72;36.88;;;;;;;7.31;72.42;102850.72;5040016;28;20034;-57
2022/03/25 00:30:30;;;;;;;54.35;34.80;;;;;;;7.28;72.34;102848.41;5032028;28;20508;-54
2022/03/25 00:32:55;;;;;;;56.08;35.95;;;;;;;7.16;71.96;102844.81;5050082;28;20036;-56
2022/03/25 00:35:21;;;;;;;53.72;34.88;;;;;;;7.19;71.78;102847.06;5035203;28;20094;-55
2022/03/25 00:37:47;;;;;;;61.13;37.35;;;;;;;7.16;72.00;102847.56;5044167;28;20025;-55
2022/03/25 00:40:12;;;;;;;53.03;35.00;;;;;;;7.18;71.90;102849.00;5037987;28;20029;-54
2022/03/25 00:42:37;;;;;;;53.30;35.50;;;;;;;7.17;71.70;102844.56;5038734;28;20047;-54
2022/03/25 00:45:04;;;;;;;51.63;35.00;;;;;;;7.18;72.22;102845.38;5042329;28;20106;-55
2022/03/25 00:47:29;;;;;;;52.58;34.83;;;;;;;7.14;71.39;102842.25;5037672;28;20041;-56
2022/03/25 00:49:55;;;;;;;55.35;36.13;;;;;;;7.13;71.92;102853.50;5042211;28;20445;-57
2022/03/25 00:52:20;;;;;;;54.10;35.28;;;;;;;7.08;71.95;102843.22;5035011;28;20404;-55
2022/03/25 00:54:45;;;;;;;55.70;36.28;;;;;;;7.07;71.39;102840.69;5046516;28;20095;-55
2022/03/25 00:57:11;;;;;;;57.70;35.50;;;;;;;7.07;71.63;102846.19;5033134;28;20052;-55
2022/03/25 00:59:36;;;;;;;53.85;34.95;;;;;;;7.03;71.31;102843.91;5042615;28;20474;-56
2022/03/25 01:02:02;;;;;;;53.15;35.08;;;;;;;7.03;71.76;102841.16;5037987;28;20041;-55
2022/03/25 01:04:29;;;;;;;56.65;34.95;;;;;;;6.94;71.67;102844.47;5038020;28;20112;-55
2022/03/25 01:06:55;;;;;;;58.63;36.53;;;;;;;6.89;72.01;102841.56;5043510;28;20033;-55
2022/03/25 01:09:21;;;;;;;54.30;34.90;;;;;;;6.79;72.28;102842.97;5036704;28;20017;-56
2022/03/25 01:11:46;;;;;;;53.13;33.00;;;;;;;6.75;72.22;102840.91;5044035;28;20111;-56
2022/03/25 01:14:13;;;;;;;54.17;33.88;;;;;;;6.70;71.95;102845.19;5034554;28;20033;-55
2022/03/25 01:16:39;;;;;;;57.10;34.60;;;;;;;6.65;72.26;102847.78;5046315;28;20031;-55
2022/03/25 01:19:05;;;;;;;53.40;32.63;;;;;;;6.69;72.39;102845.41;5034161;28;20059;-54
2022/03/25 01:21:30;;;;;;;54.65;34.45;;;;;;;6.61;71.61;102843.84;5041901;28;20040;-57
2022/03/25 01:23:56;;;;;;;52.75;34.17;;;;;;;6.58;72.26;102846.19;5049507;28;20120;-56
2022/03/25 01:26:22;;;;;;;56.65;34.88;;;;;;;6.48;72.53;102850.31;5044449;28;20148;-55
2022/03/25 01:28:47;;;;;;;53.60;33.85;;;;;;;6.47;72.06;102843.13;5035322;28;20448;-56
2022/03/25 01:31:13;;;;;;;56.80;34.55;;;;;;;6.46;71.85;102846.97;5041607;28;20430;-56
2022/03/25 01:33:38;;;;;;;52.88;35.00;;;;;;;6.41;72.11;102846.78;5053986;28;20527;-56
2022/03/25 01:36:04;;;;;;;52.05;33.05;;;;;;;6.33;72.38;102853.44;5045983;28;20029;-54
2022/03/25 01:38:30;;;;;;;52.95;33.10;;;;;;;6.29;72.69;102841.22;5036144;28;20029;-55
2022/03/25 01:40:55;;;;;;;50.83;32.42;;;;;;;6.26;72.26;102844.41;5049918;28;20032;-54
2022/03/25 01:43:21;;;;;;;51.17;32.90;;;;;;;6.27;72.24;102845.28;5040800;28;20033;-53
2022/03/25 01:45:47;;;;;;;52.67;33.85;;;;;;;6.26;71.96;102847.16;5037840;28;20124;-54
2022/03/25 01:48:13;;;;;;;49.72;32.60;;;;;;;6.23;71.77;102842.16;5043072;28;20045;-55
2022/03/25 01:50:41;;;;;;;49.10;32.50;;;;;;;6.08;71.43;102835.09;5034877;28;20040;-55
2022/03/25 01:53:18;;;;;;;52.17;33.03;;;;;;;6.08;72.12;102840.59;5045404;28;20053;-55
2022/03/25 01:55:49;;;;;;;50.30;32.45;;;;;;;6.07;72.14;102840.81;5049045;28;20066;-55
2022/03/25 01:58:15;;;;;;;53.10;33.55;;;;;;;6.00;72.17;102837.31;5048383;28;20025;-56
2022/03/25 02:00:40;;;;;;;50.35;30.90;;;;;;;5.99;71.53;102846.56;5046023;28;20056;-55
2022/03/25 02:03:06;;;;;;;49.97;31.55;;;;;;;5.95;71.61;102840.69;5041098;28;20021;-56
2022/03/25 02:05:31;;;;;;;50.22;31.67;;;;;;;5.96;71.85;102845.09;5036991;28;20411;-56
2022/03/25 02:07:57;;;;;;;51.60;32.78;;;;;;;5.89;71.73;102841.56;5042243;28;20038;-59
2022/03/25 02:10:23;;;;;;;51.25;31.67;;;;;;;5.85;71.64;102838.44;5033616;28;20053;-54
2022/03/25 02:12:48;;;;;;;48.47;31.50;;;;;;;5.84;71.28;102844.19;5044250;28;20458;-55
2022/03/25 02:15:14;;;;;;;48.97;30.75;;;;;;;5.77;71.62;102834.06;5033642;28;20100;-55
2022/03/25 02:17:40;;;;;;;49.95;31.17;;;;;;;5.71;71.02;102843.22;5043246;28;20029;-56
2022/03/25 02:20:08;;;;;;;51.85;31.58;;;;;;;5.66;71.11;102842.19;5036481;28;20036;-56
2022/03/25 02:22:36;;;;;;;48.40;29.77;;;;;;;5.59;71.29;102834.00;5037724;28;20037;-56
2022/03/25 02:25:06;;;;;;;49.67;31.38;;;;;;;5.55;70.65;102832.78;5040886;28;20025;-54
2022/03/25 02:27:33;;;;;;;46.03;29.58;;;;;;;5.61;71.15;102835.50;5044920;28;20040;-56
2022/03/25 02:29:58;;;;;;;47.95;31.02;;;;;;;5.56;71.10;102843.53;5033290;28;20033;-56
2022/03/25 02:32:23;;;;;;;49.38;30.35;;;;;;;5.49;70.92;102836.41;5044785;28;20130;-56
2022/03/25 02:34:48;;;;;;;50.85;30.20;;;;;;;5.45;70.62;102839.63;5033427;28;20033;-55
2022/03/25 02:37:14;;;;;;;49.75;31.13;;;;;;;5.38;70.57;102822.38;5039341;28;20033;-56
2022/03/25 02:39:39;;;;;;;46.58;29.88;;;;;;;5.45;71.11;102836.03;5038942;28;20032;-55
2022/03/25 02:42:05;;;;;;;48.63;30.60;;;;;;;5.42;70.17;102834.56;5036470;28;20033;-54
2022/03/25 02:44:30;;;;;;;46.67;31.33;;;;;;;5.41;70.60;102832.06;5040824;28;20492;-55
2022/03/25 02:46:56;;;;;;;47.22;29.65;;;;;;;5.33;70.41;102832.31;5033527;28;20025;-55
2022/03/25 02:49:21;;;;;;;50.05;30.83;;;;;;;5.32;70.62;102836.97;5043326;28;20104;-55
2022/03/25 02:51:46;;;;;;;50.78;29.75;;;;;;;5.30;70.40;102836.34;5032490;28;20116;-55
2022/03/25 02:54:12;;;;;;;48.70;30.38;;;;;;;5.24;70.18;102832.56;5042511;28;20032;-56
2022/03/25 02:56:37;;;;;;;48.70;29.25;;;;;;;5.23;70.43;102835.53;5034076;28;20144;-56
2022/03/25 02:59:02;;;;;;;43.80;29.60;;;;;;;5.22;70.42;102839.34;5037902;28;20038;-55
2022/03/25 03:01:28;;;;;;;48.40;29.50;;;;;;;5.21;70.45;102838.50;5039747;28;20502;-55
2022/03/25 03:03:53;;;;;;;49.30;30.30;;;;;;;5.17;70.40;102839.19;5036041;28;20029;-54
2022/03/25 03:06:19;;;;;;;48.42;30.20;;;;;;;5.17;70.31;102841.91;5041261;28;20131;-51
2022/03/25 03:08:45;;;;;;;43.97;28.65;;;;;;;5.14;69.87;102846.78;5033389;28;20527;-53
2022/03/25 03:11:11;;;;;;;44.88;28.23;;;;;;;5.12;70.82;102848.06;5069622;23;20049;-51
2022/03/25 03:13:36;;;;;;;47.05;29.05;;;;;;;5.07;70.40;102845.13;5052896;28;20046;-49
2022/03/25 03:16:02;;;;;;;47.55;29.48;;;;;;;5.02;70.30;102847.69;5044889;28;20029;-53
2022/03/25 03:18:27;;;;;;;54.47;30.10;;;;;;;4.97;70.41;102854.66;5035694;28;20116;-53
2022/03/25 03:20:53;;;;;;;49.65;29.65;;;;;;;4.93;70.40;102852.59;5037130;28;20457;-53
2022/03/25 03:23:19;;;;;;;49.33;30.90;;;;;;;4.87;70.19;102847.97;5044328;28;20037;-53
2022/03/25 03:25:44;;;;;;;50.10;30.50;;;;;;;4.83;70.87;102851.16;5044919;28;20028;-52
2022/03/25 03:28:09;;;;;;;51.08;31.13;;;;;;;4.79;70.67;102846.31;5041735;28;20028;-53
2022/03/25 03:30:35;;;;;;;48.03;30.40;;;;;;;4.76;70.55;102842.13;5033234;28;20026;-53
2022/03/25 03:33:04;;;;;;;49.67;31.52;;;;;;;4.71;70.86;102838.34;5059973;28;20029;-54
2022/03/25 03:35:32;;;;;;;48.85;29.50;;;;;;;4.67;70.73;102838.81;5032865;28;20029;-52
2022/03/25 03:37:57;;;;;;;49.25;30.60;;;;;;;4.66;70.91;102837.13;5042154;28;20113;-53
2022/03/25 03:40:23;;;;;;;50.80;30.10;;;;;;;4.59;71.14;102829.97;5035754;28;20116;-52
2022/03/25 03:42:48;;;;;;;45.85;28.33;;;;;;;4.66;71.01;102833.50;5036932;28;20025;-52
2022/03/25 03:45:14;;;;;;;50.70;30.30;;;;;;;4.63;70.83;102836.72;5041070;28;20055;-54
2022/03/25 03:47:41;;;;;;;48.28;31.25;;;;;;;4.58;71.15;102840.06;5036099;28;20025;-53
2022/03/25 03:50:08;;;;;;;49.85;30.63;;;;;;;4.50;71.33;102837.56;5041533;28;20030;-51
2022/03/25 03:52:35;;;;;;;53.70;32.05;;;;;;;4.43;72.05;102837.63;5033233;28;20017;-51
2022/03/25 03:55:01;;;;;;;48.97;31.23;;;;;;;4.40;72.03;102846.25;5044585;28;20025;-52
2022/03/25 03:57:26;;;;;;;50.00;30.30;;;;;;;4.43;71.46;102844.97;5032665;28;20017;-53
2022/03/25 03:59:52;;;;;;;50.30;30.98;;;;;;;4.39;71.26;102839.09;5038725;28;20025;-52
2022/03/25 04:02:17;;;;;;;49.60;31.65;;;;;;;4.34;72.13;102839.75;5049341;28;20029;-54
2022/03/25 04:04:43;;;;;;;50.92;30.58;;;;;;;4.30;71.61;102848.59;5044515;28;20397;-52
2022/03/25 04:07:08;;;;;;;51.08;32.42;;;;;;;4.26;71.88;102844.59;5046796;28;20052;-52
2022/03/25 04:09:36;;;;;;;48.95;30.02;;;;;;;4.24;71.81;102849.47;5052828;28;20029;-53
2022/03/25 04:12:02;;;;;;;54.08;32.33;;;;;;;4.22;72.14;102849.66;5045434;28;20557;-52
2022/03/25 04:14:27;;;;;;;52.40;33.35;;;;;;;4.16;72.18;102848.63;5036639;28;20080;-51
2022/03/25 04:16:52;;;;;;;51.17;31.48;;;;;;;4.14;72.91;102849.91;5046792;28;20057;-49
2022/03/25 04:19:18;;;;;;;48.42;31.55;;;;;;;4.16;72.79;102847.78;5047509;28;20118;-51
2022/03/25 04:21:43;;;;;;;54.90;34.15;;;;;;;4.10;72.40;102848.66;5036331;28;20033;-52
2022/03/25 04:24:09;;;;;;;49.33;30.83;;;;;;;4.06;71.93;102851.81;5047987;28;20021;-52
2022/03/25 04:26:34;;;;;;;51.47;32.65;;;;;;;4.02;72.49;102857.94;5036247;28;20033;-51
2022/03/25 04:28:59;;;;;;;51.40;30.60;;;;;;;4.01;72.17;102854.38;5043378;28;20035;-53
2022/03/25 04:31:25;;;;;;;53.58;32.38;;;;;;;3.97;72.62;102858.56;5040748;28;20068;-51
2022/03/25 04:33:50;;;;;;;51.95;32.42;;;;;;;3.93;73.14;102862.78;5039430;28;20025;-51
2022/03/25 04:36:15;;;;;;;52.22;31.55;;;;;;;3.93;72.79;102861.94;5044666;28;20062;-52
2022/03/25 04:38:42;;;;;;;53.15;32.95;;;;;;;3.91;73.58;102867.63;5038310;28;20083;-53
2022/03/25 04:41:10;;;;;;;51.97;33.65;;;;;;;3.85;73.56;102857.50;5049188;28;20029;-54
2022/03/25 04:43:36;;;;;;;50.67;32.65;;;;;;;3.83;72.98;102857.72;5035688;28;20481;-49
2022/03/25 04:46:02;;;;;;;50.13;31.92;;;;;;;3.86;72.81;102861.94;5043476;28;20076;-53
2022/03/25 04:48:27;;;;;;;53.28;32.80;;;;;;;3.82;73.30;102860.69;5055584;28;20029;-53
2022/03/25 04:50:53;;;;;;;58.70;34.20;;;;;;;3.75;73.68;102856.03;5047413;28;20090;-53
2022/03/25 04:53:18;;;;;;;53.88;32.58;;;;;;;3.71;74.18;102865.75;5040831;28;20044;-53
2022/03/25 04:55:43;;;;;;;58.08;32.75;;;;;;;3.70;72.99;102860.44;5038952;28;20508;-52
2022/03/25 04:58:09;;;;;;;53.55;32.20;;;;;;;3.66;73.44;102865.50;5044132;28;20029;-52
2022/03/25 05:00:35;;;;;;;55.08;32.80;;;;;;;3.62;73.64;102864.25;5036895;28;20041;-51
2022/03/25 05:03:00;;;;;;;51.28;32.30;;;;;;;3.56;74.07;102867.81;5044076;28;20032;-49
2022/03/25 05:05:25;;;;;;;52.38;32.30;;;;;;;3.48;75.02;102866.16;5055541;28;20033;-54
2022/03/25 05:07:51;;;;;;;56.90;34.58;;;;;;;3.41;74.43;102863.38;5047423;28;20028;-52
2022/03/25 05:10:16;;;;;;;55.20;33.33;;;;;;;3.36;74.85;102857.69;5036323;28;20053;-51
2022/03/25 05:12:43;;;;;;;54.75;31.95;;;;;;;3.33;74.66;102866.31;5043166;28;20387;-53
2022/03/25 05:15:10;;;;;;;56.17;33.65;;;;;;;3.29;75.41;102865.03;5048730;28;20025;-51
2022/03/25 05:17:46;;;;;;;55.08;33.20;;;;;;;3.26;75.42;102868.19;5049021;28;20025;-53
2022/03/25 05:20:12;;;;;;;55.97;34.67;;;;;;;3.23;76.06;102866.72;5043519;28;20022;-53
2022/03/25 05:22:37;;;;;;;58.85;33.88;;;;;;;3.25;75.85;102872.00;5036477;28;20064;-49
2022/03/25 05:25:06;;;;;;;55.75;33.00;;;;;;;3.22;75.26;102870.50;5039493;28;20037;-49
2022/03/25 05:27:42;;;;;;;53.97;33.25;;;;;;;3.22;75.88;102869.66;5049491;28;20438;-53
2022/03/25 05:30:08;;;;;;;55.95;33.42;;;;;;;3.21;75.95;102873.44;5054955;28;20021;-53
2022/03/25 05:32:33;;;;;;;60.22;34.33;;;;;;;3.18;76.69;102871.09;5054712;28;20029;-51
2022/03/25 05:34:58;;;;;;;56.70;33.67;;;;;;;3.22;75.89;102873.22;5054571;28;20048;-53
2022/03/25 05:37:24;;;;;;;55.90;33.63;;;;;;;3.22;76.00;102873.22;5054645;28;20028;-50
2022/03/25 05:39:50;;;;;;;56.85;34.97;;;;;;;3.21;76.33;102877.00;5054663;28;20532;-52
2022/03/25 05:42:15;;;;;;;56.08;34.60;;;;;;;3.19;76.68;102881.00;5054701;28;20104;-49
2022/03/25 05:44:40;;;;;;;54.65;34.05;;;;;;;3.18;76.55;102874.72;5054478;28;20070;-53
2022/03/25 05:47:06;;;;;;;56.33;33.72;;;;;;;3.24;76.70;102879.34;5054381;28;20417;-52
2022/03/25 05:49:31;;;;;;;55.20;35.10;;;;;;;3.26;76.85;102882.72;5054791;28;20102;-50
2022/03/25 05:51:56;;;;;;;55.80;34.03;;;;;;;3.24;76.50;102882.06;5054185;28;20461;-50
2022/03/25 05:54:21;;;;;;;60.03;35.63;;;;;;;3.23;76.25;102888.59;5054187;28;20110;-49
2022/03/25 05:56:47;;;;;;;58.58;35.53;;;;;;;3.25;76.26;102893.88;5052894;28;20481;-54
2022/03/25 05:59:12;;;;;;;56.45;34.70;;;;;;;3.27;76.46;102892.63;5054285;28;20025;-54
2022/03/25 06:01:38;;;;;;;59.70;35.08;;;;;;;3.27;76.85;102895.34;5053420;28;20041;-53
2022/03/25 06:04:03;;;;;;;58.75;36.95;;;;;;;3.28;76.75;102893.44;5053621;28;20036;-50
2022/03/25 06:06:29;;;;;;;59.63;34.25;;;;;;;3.28;77.14;102891.56;5053999;28;20033;-54
2022/03/25 06:08:54;;;;;;;56.70;34.28;;;;;;;3.34;77.13;102891.78;5054001;28;20017;-52
2022/03/25 06:11:19;;;;;;;58.80;35.38;;;;;;;3.38;76.85;102896.63;5053990;28;20056;-51
2022/03/25 06:13:44;;;;;;;61.92;34.67;;;;;;;3.46;76.80;102905.69;5069315;28;20029;-52
2022/03/25 06:16:10;;;;;;;59.58;36.33;;;;;;;3.43;76.95;102898.75;5053812;28;20472;-52
2022/03/25 06:18:35;;;;;;;60.70;37.30;;;;;;;3.42;77.68;102902.53;5053753;28;20021;-51
2022/03/25 06:21:00;;;;;;;64.28;36.58;;;;;;;3.45;76.85;102893.91;5053799;28;20039;-51
2022/03/25 06:23:25;;;;;;;63.22;36.17;;;;;;;3.49;77.11;102908.03;5053757;28;20028;-52
2022/03/25 06:25:51;;;;;;;64.80;37.00;;;;;;;3.51;77.57;102912.22;5045513;28;20052;-53
2022/03/25 06:28:16;;;;;;;64.03;36.67;;;;;;;3.58;76.86;102914.97;5039223;28;20063;-51
2022/03/25 06:30:43;;;;;;;59.92;36.30;;;;;;;3.68;76.58;102909.13;5032744;28;20425;-51
2022/03/25 06:33:10;;;;;;;64.93;36.15;;;;;;;3.74;76.80;102919.22;5033791;28;20115;-50
2022/03/25 06:35:36;;;;;;;56.53;34.92;;;;;;;3.83;76.59;102908.91;5033407;28;20029;-50
2022/03/25 06:38:03;;;;;;;62.40;36.42;;;;;;;3.83;76.53;102914.38;5033499;28;20029;-50
2022/03/25 06:40:28;;;;;;;66.18;37.78;;;;;;;3.88;76.29;102918.16;5033497;28;20030;-51
2022/03/25 06:42:56;;;;;;;66.38;38.28;;;;;;;3.94;76.55;102919.22;5033352;28;20021;-50
2022/03/25 06:45:23;;;;;;;67.25;40.47;;;;;;;3.99;76.94;102916.72;5033149;28;20105;-51
2022/03/25 06:47:48;;;;;;;65.32;37.97;;;;;;;4.05;76.60;102912.28;5033210;28;20053;-52
2022/03/25 06:50:15;;;;;;;68.40;40.20;;;;;;;4.14;76.37;102921.13;5033382;28;20068;-53
2022/03/25 06:52:42;;;;;;;64.40;37.97;;;;;;;4.23;75.84;102922.59;5033272;28;20397;-53
2022/03/25 06:55:08;;;;;;;65.70;41.03;;;;;;;4.29;75.98;102924.50;5033167;28;20458;-52
2022/03/25 06:57:33;;;;;;;72.78;42.33;;;;;;;4.34;75.40;102924.69;5033809;28;20064;-50
2022/03/25 06:59:59;;;;;;;67.43;40.38;;;;;;;4.44;75.36;102931.63;5043305;28;20083;-52
2022/03/25 07:02:24;;;;;;;67.82;41.05;;;;;;;4.48;75.63;102930.16;5032262;28;20560;-50
2022/03/25 07:04:50;;;;;;;70.47;40.20;;;;;;;4.53;75.59;102933.09;5032459;28;20025;-53
2022/03/25 07:07:18;;;;;;;66.25;40.45;;;;;;;4.57;75.45;102925.28;5048428;28;20091;-50
2022/03/25 07:09:44;;;;;;;67.28;41.40;;;;;;;4.63;75.77;102929.94;5032539;28;20053;-53
2022/03/25 07:12:10;;;;;;;64.45;41.20;;;;;;;4.73;75.44;102934.94;5033112;28;20524;-51
2022/03/25 07:14:35;;;;;;;69.18;41.70;;;;;;;4.78;75.08;102932.38;5032753;28;20440;-51
2022/03/25 07:17:00;;;;;;;68.15;41.30;;;;;;;4.80;74.83;102936.63;5032746;28;20033;-53
2022/03/25 07:19:25;;;;;;;73.63;41.83;;;;;;;4.87;74.84;102943.97;5047959;28;20026;-52
2022/03/25 07:21:54;;;;;;;67.78;41.75;;;;;;;4.92;74.41;102933.19;5032742;28;20040;-51
2022/03/25 07:24:21;;;;;;;70.30;42.08;;;;;;;4.98;74.80;102938.66;5038722;28;20043;-53
2022/03/25 07:26:47;;;;;;;72.20;42.65;;;;;;;5.08;75.24;102943.69;5046374;28;20358;-50
2022/03/25 07:29:12;;;;;;;67.45;40.50;;;;;;;5.17;74.60;102943.44;5036913;28;20024;-53
2022/03/25 07:31:38;;;;;;;66.22;41.65;;;;;;;5.25;74.31;102945.94;5041450;28;20132;-53
2022/03/25 07:34:03;;;;;;;70.43;41.83;;;;;;;5.34;74.30;102939.13;5032784;28;20116;-52
2022/03/25 07:36:29;;;;;;;70.97;43.97;;;;;;;5.43;74.17;102951.53;5032858;28;20038;-53
2022/03/25 07:38:54;;;;;;;69.55;43.38;;;;;;;5.52;73.37;102954.03;5032753;28;20366;-53
2022/03/25 07:41:20;;;;;;;66.45;41.90;;;;;;;5.65;73.79;102962.19;5034516;28;20033;-53
2022/03/25 07:43:45;;;;;;;67.70;41.47;;;;;;;5.76;73.51;102955.16;5036261;28;20064;-51
2022/03/25 07:46:11;;;;;;;69.63;42.85;;;;;;;5.87;73.33;102970.06;5036005;28;20457;-50
2022/03/25 07:48:36;;;;;;;66.18;40.75;;;;;;;5.98;73.10;102969.34;5035330;28;20033;-51
2022/03/25 07:51:03;;;;;;;66.28;41.45;;;;;;;6.12;72.87;102970.13;5034520;28;20079;-54
2022/03/25 07:53:28;;;;;;;67.47;41.80;;;;;;;6.22;71.95;102981.47;5036176;28;20096;-54
2022/03/25 07:55:54;;;;;;;63.97;40.70;;;;;;;6.32;70.92;102972.72;5035189;28;20164;-52
2022/03/25 07:58:19;;;;;;;67.47;40.38;;;;;;;6.43;69.79;102984.03;5033789;28;20029;-53
2022/03/25 08:00:48;;;;;;;69.95;42.65;;;;;;;6.52;69.83;102982.69;5033537;28;20073;-53
2022/03/25 08:03:16;;;;;;;65.28;41.35;;;;;;;6.59;69.76;102988.13;5033428;28;20032;-52
2022/03/25 08:05:42;;;;;;;65.07;38.63;;;;;;;6.68;69.67;102987.63;5033821;28;20043;-54
2022/03/25 08:08:08;;;;;;;65.50;39.30;;;;;;;6.75;69.72;102984.81;5035479;28;20048;-54
2022/03/25 08:10:35;;;;;;;62.67;40.45;;;;;;;6.88;69.42;102978.31;5037575;28;20406;-53
2022/03/25 08:13:01;;;;;;;70.53;43.15;;;;;;;6.98;68.10;102980.50;5032714;28;20029;-53
2022/03/25 08:15:30;;;;;;;60.83;39.28;;;;;;;7.10;67.87;102981.44;5033013;28;20080;-53
2022/03/25 08:18:05;;;;;;;66.97;43.03;;;;;;;7.22;67.56;102991.69;5032648;28;20021;-53
2022/03/25 08:20:41;;;;;;;62.35;39.42;;;;;;;7.32;67.14;102995.56;5037600;28;20033;-50
2022/03/25 08:23:09;;;;;;;59.30;39.33;;;;;;;7.44;66.89;103001.13;5041451;28;20057;-53
2022/03/25 08:28:19;;;;;;;61.00;38.22;;;;;;;7.66;66.18;102997.88;5045681;28;20052;-53
2022/03/25 08:30:46;;;;;;;62.10;39.63;;;;;;;7.79;65.77;103000.44;5037972;28;20053;-53
2022/03/25 08:33:12;;;;;;;59.40;39.40;;;;;;;7.91;65.16;102999.63;5050330;28;20052;-53
2022/03/25 08:35:38;;;;;;;62.05;40.90;;;;;;;7.99;64.83;102992.94;5052835;28;20098;-54
2022/03/25 08:38:05;;;;;;;59.22;37.70;;;;;;;8.13;64.66;102994.41;5053640;28;20029;-51
2022/03/25 08:40:32;;;;;;;57.70;37.83;;;;;;;8.26;64.08;102996.97;5052903;28;20037;-53
2022/03/25 08:42:58;;;;;;;60.85;38.72;;;;;;;8.42;63.81;103002.84;5052058;28;20193;-51
2022/03/25 08:45:25;;;;;;;53.72;34.90;;;;;;;8.50;61.96;102999.75;5052826;28;20497;-52
2022/03/25 08:47:51;;;;;;;54.72;35.72;;;;;;;8.64;61.16;102999.53;5052760;28;20031;-52
2022/03/25 08:50:17;;;;;;;64.75;37.97;;;;;;;8.77;60.69;103001.22;5052675;28;20405;-52
2022/03/25 08:52:44;;;;;;;58.30;36.45;;;;;;;8.87;60.64;103004.19;5044505;28;20456;-50
2022/03/25 08:55:10;;;;;;;57.30;35.42;;;;;;;9.00;59.47;102998.44;5053240;28;20400;-53
2022/03/25 08:57:37;;;;;;;54.05;33.83;;;;;;;9.16;59.00;102999.59;5052111;28;20025;-54
2022/03/25 09:00:10;;;;;;;54.38;35.30;;;;;;;9.28;56.36;103007.00;5046353;28;20033;-53
2022/03/25 09:02:36;;;;;;;52.70;32.83;;;;;;;9.32;55.53;103005.44;5047037;28;20033;-53
2022/03/25 09:05:01;;;;;;;53.00;33.33;;;;;;;9.39;54.72;103011.66;5033697;28;20058;-52
2022/03/25 09:07:26;;;;;;;54.55;33.03;;;;;;;9.51;54.25;103011.63;5032612;28;20033;-50
2022/03/25 09:09:52;;;;;;;54.13;34.17;;;;;;;9.62;54.29;103013.50;5035681;28;20037;-52
2022/03/25 09:12:17;;;;;;;51.95;33.35;;;;;;;9.70;53.53;103015.03;5039472;28;20052;-52
2022/03/25 09:14:43;;;;;;;51.60;33.55;;;;;;;9.75;53.64;103020.66;5052867;28;20112;-52
2022/03/25 09:17:09;;;;;;;55.28;33.80;;;;;;;9.88;53.30;103011.22;5052831;28;20443;-49
2022/03/25 09:19:34;;;;;;;52.47;33.35;;;;;;;10.02;53.51;103019.22;5052808;28;20028;-50
2022/03/25 09:21:59;;;;;;;53.33;33.58;;;;;;;10.13;52.41;103024.66;5052184;28;20131;-47
2022/03/25 09:24:24;;;;;;;51.63;32.75;;;;;;;10.24;52.29;103022.06;5052745;28;20480;-51
2022/03/25 09:26:50;;;;;;;49.95;32.15;;;;;;;10.35;51.86;103028.59;5052326;28;20032;-50
2022/03/25 09:29:15;;;;;;;50.55;33.50;;;;;;;10.45;51.53;103026.03;5050405;28;20021;-50
2022/03/25 09:31:42;;;;;;;48.75;30.77;;;;;;;10.50;51.15;103023.38;5032576;28;20017;-52
2022/03/25 09:36:53;;;;;;;47.05;30.08;;;;;;;10.68;49.89;103024.19;5035738;28;20102;-49
2022/03/25 09:39:18;;;;;;;51.88;31.25;;;;;;;10.73;49.12;103030.66;5042534;28;20033;-50
2022/03/25 09:41:45;;;;;;;50.97;33.47;;;;;;;10.69;48.80;103018.41;5032397;28;20044;-51
2022/03/25 09:44:14;;;;;;;51.33;30.83;;;;;;;10.80;48.68;103013.88;5031086;28;20500;-53
2022/03/25 09:46:42;;;;;;;47.00;29.70;;;;;;;10.89;48.24;103015.13;5032740;28;20034;-49
2022/03/25 09:49:08;;;;;;;44.35;28.65;;;;;;;10.98;47.85;103009.97;5032982;28;20705;-49
2022/03/25 09:51:34;;;;;;;43.63;29.70;;;;;;;11.10;47.41;103009.00;5032766;28;20065;-50
2022/03/25 09:54:00;;;;;;;48.20;30.67;;;;;;;11.17;47.16;102998.56;5032111;28;20049;-51
2022/03/25 09:56:25;;;;;;;46.75;29.38;;;;;;;11.33;47.77;102996.84;5031678;28;20037;-56
2022/03/25 09:58:50;;;;;;;47.35;29.15;;;;;;;11.40;47.58;103003.00;5031819;28;20025;-51
2022/03/25 10:01:16;;;;;;;46.95;29.92;;;;;;;11.51;46.92;103001.22;5030964;28;20143;-51
2022/03/25 10:03:41;;;;;;;47.75;29.88;;;;;;;11.64;47.52;102988.88;5031547;28;20041;-51
2022/03/25 10:06:10;;;;;;;43.78;28.92;;;;;;;11.73;46.15;102995.63;5031817;28;20041;-52
2022/03/25 10:08:38;;;;;;;47.83;31.17;;;;;;;11.82;45.48;102993.19;5034992;28;20033;-54
2022/03/25 10:11:20;;;;;;;48.55;30.45;;;;;;;11.84;45.95;102997.41;5050665;28;20409;-53
2022/03/25 10:13:45;;;;;;;47.75;29.42;;;;;;;12.00;45.77;102997.56;5043864;28;20396;-53
2022/03/25 10:16:31;;;;;;;45.10;30.17;;;;;;;12.03;45.26;103005.38;5044934;28;20030;-52
2022/03/25 10:18:57;;;;;;;45.63;29.27;;;;;;;12.09;44.91;103006.28;5031408;28;20442;-53
2022/03/25 10:21:26;;;;;;;44.97;29.15;;;;;;;12.13;44.29;103001.84;5031809;28;20268;-53
2022/03/25 10:23:52;;;;;;;45.60;29.60;;;;;;;12.22;43.71;102997.50;5031552;28;20033;-51
2022/03/25 10:26:17;;;;;;;44.58;30.05;;;;;;;12.32;43.67;102989.25;5032047;28;20040;-52
2022/03/25 10:28:44;;;;;;;41.55;26.92;;;;;;;12.48;43.64;102984.66;5033957;28;20042;-51
2022/03/25 10:31:15;;;;;;;42.35;29.08;;;;;;;12.63;43.61;102991.41;5051676;28;20035;-51
2022/03/25 10:33:45;;;;;;;42.47;27.70;;;;;;;12.74;43.04;102989.53;5051519;28;20478;-52
2022/03/25 10:36:14;;;;;;;43.05;27.88;;;;;;;12.81;42.96;102984.56;5051390;28;20063;-51
2022/03/25 10:39:11;;;;;;;47.10;28.80;;;;;;;12.86;43.35;102987.38;5051143;28;20033;-54
2022/03/25 10:41:42;;;;;;;46.20;26.90;;;;;;;12.90;43.28;102991.28;5047243;28;20139;-54
2022/03/25 10:44:09;;;;;;;41.97;27.67;;;;;;;12.97;42.09;102992.97;5035554;28;20029;-53
2022/03/25 10:46:46;;;;;;;46.80;29.35;;;;;;;13.03;42.88;102986.38;5046244;28;20021;-53
2022/03/25 10:49:15;;;;;;;44.33;28.75;;;;;;;13.12;41.97;102993.06;5041195;28;20071;-54
2022/03/25 10:51:52;;;;;;;42.60;27.65;;;;;;;13.16;42.03;102985.84;5034039;28;20547;-54
2022/03/25 10:54:25;;;;;;;43.58;28.55;;;;;;;13.28;41.89;102988.41;5031913;28;20036;-53
2022/03/25 10:56:51;;;;;;;43.75;29.48;;;;;;;13.27;41.90;102978.41;5049455;28;20123;-53
2022/03/25 10:59:22;;;;;;;42.45;28.70;;;;;;;13.36;42.05;102985.13;5051457;28;20496;-53
2022/03/25 11:01:53;;;;;;;46.15;29.77;;;;;;;13.39;43.29;102983.75;5050681;28;20427;-54
2022/03/25 11:04:19;;;;;;;44.42;30.15;;;;;;;13.36;42.00;102981.47;5050901;28;20029;-53
2022/03/25 11:06:48;;;;;;;43.05;28.50;;;;;;;13.34;41.73;102981.75;5050571;28;20388;-53
2022/03/25 11:09:15;;;;;;;43.58;28.58;;;;;;;13.40;42.12;102975.13;5066342;28;20029;-53
2022/03/25 11:11:43;;;;;;;45.47;29.52;;;;;;;13.48;42.52;102965.44;5050354;28;20045;-54
2022/03/25 11:14:09;;;;;;;44.78;30.35;;;;;;;13.65;42.19;102976.28;5050335;28;20465;-54
2022/03/25 11:16:38;;;;;;;46.08;31.02;;;;;;;13.76;42.50;102979.94;5050141;28;20098;-53
2022/03/25 11:19:06;;;;;;;47.20;31.70;;;;;;;13.72;41.75;102974.09;5050284;28;20025;-53